createdAt,value
2019-06-07T00:00:39.426Z,9.60
2019-06-07T00:01:30.808Z,8.60
2019-06-07T00:02:31.021Z,9.20
2019-06-07T00:03:31.256Z,8.10
2019-06-07T00:04:31.470Z,7.00
2019-06-07T00:05:31.689Z,9.00
2019-06-07T00:06:31.936Z,8.10
2019-06-07T00:07:32.140Z,7.50
2019-06-07T00:08:32.365Z,5.70
2019-06-07T00:09:32.589Z,5.60
2019-06-07T00:10:36.744Z,8.40
2019-06-07T00:11:33.040Z,6.00
2019-06-07T00:12:33.264Z,5.20
2019-06-07T00:13:33.484Z,6.00
2019-06-07T00:14:33.713Z,5.80
2019-06-07T00:15:33.932Z,7.40
2019-06-07T00:16:34.155Z,7.10
2019-06-07T00:17:34.377Z,8.50
2019-06-07T00:18:34.609Z,10.40
2019-06-07T00:19:34.833Z,8.50
2019-06-07T00:20:35.057Z,8.80
2019-06-07T00:22:13.497Z,5.50
2019-06-07T00:22:35.509Z,7.70
2019-06-07T00:23:35.735Z,9.40
2019-06-07T00:24:35.962Z,8.40
2019-06-07T00:25:36.183Z,12.90
2019-06-07T00:26:55.113Z,19.00
2019-06-07T00:27:36.636Z,9.40
2019-06-07T00:28:36.858Z,13.40
2019-06-07T00:29:37.089Z,12.60
2019-06-07T00:30:50.619Z,10.70
2019-06-07T00:31:37.532Z,13.30
2019-06-07T00:32:37.772Z,9.90
2019-06-07T00:33:37.986Z,7.70
2019-06-07T00:34:38.210Z,9.50
2019-06-07T00:35:38.434Z,6.50
2019-06-07T00:36:38.656Z,10.30
2019-06-07T00:37:38.880Z,19.60
2019-06-07T00:38:39.110Z,7.20
2019-06-07T00:39:39.330Z,10.00
2019-06-07T00:40:39.558Z,9.80
2019-06-07T00:41:39.780Z,12.90
2019-06-07T00:42:40.022Z,8.30
2019-06-07T00:43:40.279Z,10.30
2019-06-07T00:44:40.469Z,15.70
2019-06-07T00:45:40.680Z,10.80
2019-06-07T00:46:40.908Z,11.40
2019-06-07T00:47:41.134Z,8.90
2019-06-07T00:48:41.357Z,10.00
2019-06-07T00:49:41.830Z,14.80
2019-06-07T00:50:41.805Z,11.70
2019-06-07T00:51:50.476Z,10.00
2019-06-07T00:53:13.439Z,10.60
2019-06-07T00:53:42.479Z,15.00
2019-06-07T00:54:42.701Z,16.50
2019-06-07T00:55:42.923Z,8.10
2019-06-07T00:56:43.150Z,12.30
2019-06-07T00:57:43.376Z,12.10
2019-06-07T00:58:43.601Z,13.40
2019-06-07T00:59:43.829Z,12.40
2019-06-07T01:00:44.055Z,9.70
2019-06-07T01:01:44.282Z,10.60
2019-06-07T01:02:44.507Z,12.10
2019-06-07T01:03:44.734Z,13.10
2019-06-07T01:04:44.955Z,12.50
2019-06-07T01:05:45.181Z,11.40
2019-06-07T01:06:45.406Z,11.90
2019-06-07T01:07:45.636Z,14.40
2019-06-07T01:08:45.861Z,16.30
2019-06-07T01:09:46.081Z,11.10
2019-06-07T01:10:53.715Z,10.80
2019-06-07T01:11:46.532Z,18.40
2019-06-07T01:12:46.757Z,11.60
2019-06-07T01:13:46.985Z,18.30
2019-06-07T01:14:47.209Z,19.80
2019-06-07T01:15:47.433Z,40.10
2019-06-07T01:16:57.496Z,20.40
2019-06-07T01:18:32.492Z,20.90
2019-06-07T01:18:51.194Z,10.70
2019-06-07T01:19:48.343Z,10.40
2019-06-07T01:20:48.565Z,14.20
2019-06-07T01:21:48.791Z,13.30
2019-06-07T01:22:49.010Z,10.50
2019-06-07T01:24:10.666Z,14.00
2019-06-07T01:24:49.462Z,12.40
2019-06-07T01:25:49.726Z,12.90
2019-06-07T01:26:49.913Z,12.90
2019-06-07T01:27:50.159Z,18.40
2019-06-07T01:28:50.362Z,18.00
2019-06-07T01:29:50.587Z,11.30
2019-06-07T01:30:50.814Z,13.00
2019-06-07T01:31:51.036Z,17.70
2019-06-07T01:32:51.266Z,16.50
2019-06-07T01:33:51.613Z,19.40
2019-06-07T01:34:51.712Z,14.50
2019-06-07T01:35:51.941Z,23.80
2019-06-07T01:36:52.174Z,17.30
2019-06-07T01:37:52.406Z,15.80
2019-06-07T01:38:52.624Z,11.90
2019-06-07T01:39:52.851Z,13.30
2019-06-07T01:40:53.086Z,15.90
2019-06-07T01:41:53.417Z,12.80
2019-06-07T01:42:53.491Z,16.20
2019-06-07T01:43:53.718Z,12.00
2019-06-07T01:44:53.944Z,7.70
2019-06-07T01:45:54.172Z,11.80
2019-06-07T01:46:54.397Z,10.60
2019-06-07T01:47:54.617Z,12.60
2019-06-07T01:48:54.847Z,10.40
2019-06-07T01:49:55.075Z,10.20
2019-06-07T01:50:55.289Z,9.70
2019-06-07T01:51:55.517Z,14.60
2019-06-07T01:52:55.746Z,9.80
2019-06-07T01:54:41.235Z,11.30
2019-06-07T01:54:58.846Z,11.50
2019-06-07T01:55:56.416Z,11.40
2019-06-07T01:56:56.639Z,12.20
2019-06-07T01:57:56.864Z,11.80
2019-06-07T01:58:57.092Z,13.20
2019-06-07T01:59:57.326Z,11.90
2019-06-07T02:00:57.543Z,14.00
2019-06-07T02:01:57.767Z,14.20
2019-06-07T02:02:57.995Z,15.10
2019-06-07T02:03:58.226Z,15.30
2019-06-07T02:04:58.448Z,15.20
2019-06-07T02:05:58.671Z,14.10
2019-06-07T02:06:58.896Z,17.90
2019-06-07T02:07:59.125Z,17.30
2019-06-07T02:08:59.347Z,18.00
2019-06-07T02:09:59.600Z,20.40
2019-06-07T02:10:59.793Z,18.20
2019-06-07T02:12:00.017Z,18.80
2019-06-07T02:13:00.242Z,23.40
2019-06-07T02:14:00.470Z,24.70
2019-06-07T02:15:00.695Z,22.80
2019-06-07T02:16:00.923Z,19.00
2019-06-07T02:17:01.168Z,17.20
2019-06-07T02:18:01.364Z,19.10
2019-06-07T02:19:03.635Z,20.00
2019-06-07T02:20:01.827Z,21.40
2019-06-07T02:21:02.049Z,17.20
2019-06-07T02:22:02.336Z,12.60
2019-06-07T02:23:02.491Z,16.50
2019-06-07T02:24:02.753Z,17.40
2019-06-07T02:25:35.109Z,29.60
2019-06-07T02:26:04.687Z,39.40
2019-06-07T02:27:03.412Z,50.60
2019-06-07T02:28:26.508Z,20.50
2019-06-07T02:29:03.856Z,37.40
2019-06-07T02:30:35.390Z,31.60
2019-06-07T02:31:04.309Z,48.30
2019-06-07T02:32:04.531Z,38.30
2019-06-07T02:33:04.758Z,56.30
2019-06-07T02:34:04.984Z,114.40
2019-06-07T02:35:05.207Z,63.70
2019-06-07T02:36:05.434Z,102.20
2019-06-07T02:37:05.655Z,91.20
2019-06-07T02:38:05.911Z,110.90
2019-06-07T02:39:06.103Z,42.40
2019-06-07T02:40:06.327Z,28.20
2019-06-07T02:41:06.554Z,35.00
2019-06-07T02:42:06.853Z,52.70
2019-06-07T02:43:07.036Z,56.30
2019-06-07T02:44:07.236Z,35.60
2019-06-07T02:45:07.459Z,50.80
2019-06-07T02:46:25.273Z,21.80
2019-06-07T02:47:07.903Z,30.30
2019-06-07T02:48:08.128Z,15.20
2019-06-07T02:49:08.351Z,27.20
2019-06-07T02:50:08.576Z,28.50
2019-06-07T02:51:08.807Z,20.70
2019-06-07T02:52:09.031Z,14.80
2019-06-07T02:53:09.280Z,28.90
2019-06-07T02:54:09.484Z,19.50
2019-06-07T02:55:09.720Z,16.90
2019-06-07T02:56:37.651Z,31.00
2019-06-07T02:57:10.154Z,23.80
2019-06-07T02:58:10.379Z,25.00
2019-06-07T02:59:10.607Z,19.60
2019-06-07T03:00:40.673Z,17.80
2019-06-07T03:01:11.064Z,18.80
2019-06-07T03:02:11.296Z,28.00
2019-06-07T03:03:11.516Z,37.00
2019-06-07T03:04:11.738Z,28.70
2019-06-07T03:05:11.965Z,33.90
2019-06-07T03:06:12.190Z,22.70
2019-06-07T03:07:12.417Z,28.70
2019-06-07T03:08:12.641Z,31.40
2019-06-07T03:09:12.869Z,23.20
2019-06-07T03:10:13.203Z,32.80
2019-06-07T03:11:13.323Z,17.80
2019-06-07T03:12:13.543Z,33.10
2019-06-07T03:13:13.753Z,14.50
2019-06-07T03:14:13.984Z,24.40
2019-06-07T03:15:32.165Z,17.90
2019-06-07T03:16:14.434Z,25.90
2019-06-07T03:17:14.658Z,22.50
2019-06-07T03:18:14.885Z,20.20
2019-06-07T03:19:15.114Z,31.60
2019-06-07T03:20:15.327Z,21.80
2019-06-07T03:21:15.683Z,23.70
2019-06-07T03:22:15.775Z,26.50
2019-06-07T03:23:16.001Z,31.30
2019-06-07T03:24:16.241Z,42.80
2019-06-07T03:25:16.452Z,23.00
2019-06-07T03:26:16.684Z,18.50
2019-06-07T03:27:34.774Z,19.50
2019-06-07T03:28:17.123Z,25.20
2019-06-07T03:29:17.350Z,17.80
2019-06-07T03:31:17.787Z,19.50
2019-06-07T03:32:18.013Z,52.50
2019-06-07T03:33:18.241Z,17.30
2019-06-07T03:34:18.470Z,27.20
2019-06-07T03:35:18.691Z,32.50
2019-06-07T03:36:25.671Z,18.70
2019-06-07T03:37:19.142Z,21.40
2019-06-07T03:38:19.366Z,29.00
2019-06-07T03:39:19.588Z,27.50
2019-06-07T03:40:19.813Z,26.30
2019-06-07T03:41:20.046Z,20.20
2019-06-07T03:42:20.267Z,26.20
2019-06-07T03:43:20.490Z,22.60
2019-06-07T03:44:20.723Z,57.70
2019-06-07T03:45:20.946Z,106.00
2019-06-07T03:46:21.172Z,83.10
2019-06-07T03:47:21.402Z,31.10
2019-06-07T03:48:21.627Z,29.10
2019-06-07T03:49:21.853Z,25.80
2019-06-07T03:50:22.075Z,18.30
2019-06-07T03:51:25.173Z,22.60
2019-06-07T03:52:22.526Z,17.40
2019-06-07T03:53:22.751Z,23.50
2019-06-07T03:54:22.989Z,24.30
2019-06-07T03:55:23.203Z,16.90
2019-06-07T03:56:23.432Z,16.20
2019-06-07T03:57:23.656Z,20.30
2019-06-07T03:58:34.698Z,19.60
2019-06-07T03:59:24.109Z,24.00
2019-06-07T04:00:24.337Z,18.80
2019-06-07T04:01:24.566Z,17.70
2019-06-07T04:02:24.786Z,16.30
2019-06-07T04:03:38.256Z,16.60
2019-06-07T04:04:25.239Z,18.90
2019-06-07T04:05:25.465Z,23.10
2019-06-07T04:06:25.693Z,23.40
2019-06-07T04:07:25.922Z,24.20
2019-06-07T04:08:26.148Z,17.30
2019-06-07T04:09:26.383Z,19.00
2019-06-07T04:10:44.700Z,25.90
2019-06-07T04:11:27.809Z,15.90
2019-06-07T04:12:28.496Z,20.20
2019-06-07T04:13:29.796Z,20.20
2019-06-07T04:14:29.389Z,26.10
2019-06-07T04:15:28.126Z,41.50
2019-06-07T04:16:28.950Z,25.10
2019-06-07T04:17:31.170Z,18.20
2019-06-07T04:18:28.438Z,30.20
2019-06-07T04:19:28.908Z,24.00
2019-06-07T04:20:29.487Z,21.40
2019-06-07T04:21:30.109Z,21.50
2019-06-07T04:22:31.283Z,22.30
2019-06-07T04:23:31.762Z,30.10
2019-06-07T04:24:31.103Z,29.90
2019-06-07T04:25:33.912Z,36.90
2019-06-07T04:26:31.479Z,51.50
2019-06-07T04:27:30.655Z,44.90
2019-06-07T04:29:29.947Z,41.30
2019-06-07T04:29:35.654Z,30.90
2019-06-07T04:30:34.159Z,76.00
2019-06-07T04:31:32.667Z,67.20
2019-06-07T04:32:32.138Z,42.80
2019-06-07T04:33:34.079Z,42.80
2019-06-07T04:34:35.789Z,41.50
2019-06-07T04:35:32.940Z,32.70
2019-06-07T04:36:45.946Z,37.30
2019-06-07T04:37:33.460Z,36.90
2019-06-07T04:38:37.947Z,38.10
2019-06-07T04:39:35.460Z,29.90
2019-06-07T04:40:34.338Z,36.00
2019-06-07T04:41:34.787Z,23.40
2019-06-07T04:42:37.864Z,37.70
2019-06-07T04:43:35.517Z,34.00
2019-06-07T04:44:35.051Z,42.30
2019-06-07T04:45:41.840Z,39.70
2019-06-07T04:46:39.042Z,33.40
2019-06-07T04:47:36.685Z,34.70
2019-06-07T04:48:37.801Z,28.80
2019-06-07T04:49:38.118Z,38.90
2019-06-07T04:50:38.305Z,29.90
2019-06-07T04:51:37.253Z,40.00
2019-06-07T04:52:42.149Z,35.70
2019-06-07T04:53:38.657Z,34.60
2019-06-07T04:54:38.524Z,31.10
2019-06-07T04:55:39.790Z,28.00
2019-06-07T04:56:40.834Z,33.00
2019-06-07T04:57:39.510Z,34.10
2019-06-07T04:58:38.312Z,28.00
2019-06-07T05:01:01.547Z,35.90
2019-06-07T05:01:41.453Z,35.00
2019-06-07T05:02:42.733Z,34.20
2019-06-07T05:03:41.676Z,34.70
2019-06-07T05:04:39.919Z,30.00
2019-06-07T05:05:43.110Z,31.80
2019-06-07T05:06:40.354Z,32.90
2019-06-07T05:07:40.844Z,31.60
2019-06-07T05:08:43.591Z,29.20
2019-06-07T05:09:43.162Z,25.70
2019-06-07T05:10:43.068Z,21.50
2019-06-07T05:11:44.912Z,21.80
2019-06-07T05:12:44.178Z,26.00
2019-06-07T05:13:43.966Z,21.00
2019-06-07T05:14:44.015Z,23.10
2019-06-07T05:15:42.356Z,19.00
2019-06-07T05:16:44.329Z,19.70
2019-06-07T05:17:43.462Z,18.90
2019-06-07T05:18:43.215Z,21.30
2019-06-07T05:19:44.544Z,21.40
2019-06-07T05:20:44.438Z,18.50
2019-06-07T05:22:01.417Z,16.70
2019-06-07T05:22:45.271Z,16.80
2019-06-07T05:24:05.385Z,18.40
2019-06-07T05:24:43.911Z,15.80
2019-06-07T05:25:44.735Z,13.10
2019-06-07T05:26:43.807Z,11.50
2019-06-07T05:27:46.774Z,13.80
2019-06-07T05:28:44.255Z,11.70
2019-06-07T05:30:06.262Z,11.00
2019-06-07T05:31:04.020Z,12.80
2019-06-07T05:31:45.687Z,12.30
2019-06-07T05:32:46.099Z,11.20
2019-06-07T05:33:45.390Z,13.10
2019-06-07T05:34:47.280Z,10.50
2019-06-07T05:35:45.840Z,11.40
2019-06-07T05:36:46.068Z,9.60
2019-06-07T05:37:46.304Z,8.60
2019-06-07T05:38:46.520Z,8.20
2019-06-07T05:39:46.900Z,9.80
2019-06-07T05:40:48.687Z,8.30
2019-06-07T05:41:47.199Z,7.90
2019-06-07T05:42:47.428Z,8.20
2019-06-07T05:44:00.241Z,10.00
2019-06-07T05:44:47.885Z,8.80
2019-06-07T05:45:48.119Z,8.40
2019-06-07T05:46:48.339Z,9.30
2019-06-07T05:47:50.943Z,8.70
2019-06-07T05:48:48.791Z,9.50
2019-06-07T05:49:49.020Z,9.70
2019-06-07T05:50:56.510Z,11.10
2019-06-07T05:51:49.476Z,9.00
2019-06-07T05:52:49.710Z,9.20
2019-06-07T05:53:49.924Z,8.60
2019-06-07T05:54:50.151Z,10.10
2019-06-07T05:55:50.449Z,9.90
2019-06-07T05:56:50.626Z,12.30
2019-06-07T05:57:51.201Z,10.00
2019-06-07T05:58:51.066Z,9.10
2019-06-07T05:59:51.291Z,9.80
2019-06-07T06:00:51.529Z,11.30
2019-06-07T06:01:59.773Z,9.90
2019-06-07T06:03:03.648Z,9.40
2019-06-07T06:03:52.207Z,10.40
2019-06-07T06:04:52.438Z,10.50
2019-06-07T06:05:55.415Z,12.70
2019-06-07T06:06:52.882Z,9.70
2019-06-07T06:07:53.108Z,8.60
2019-06-07T06:09:11.006Z,8.80
2019-06-07T06:09:53.568Z,9.00
2019-06-07T06:10:53.792Z,9.10
2019-06-07T06:12:01.643Z,8.40
2019-06-07T06:12:54.246Z,9.30
2019-06-07T06:14:06.912Z,9.00
2019-06-07T06:14:54.699Z,8.20
2019-06-07T06:16:01.696Z,8.20
2019-06-07T06:16:55.142Z,9.10
2019-06-07T06:17:55.367Z,10.10
2019-06-07T06:18:55.593Z,9.10
2019-06-07T06:19:55.814Z,8.10
2019-06-07T06:21:15.509Z,9.80
2019-06-07T06:21:56.270Z,10.40
2019-06-07T06:22:56.490Z,10.40
2019-06-07T06:23:56.724Z,10.00
2019-06-07T06:25:58.315Z,8.80
2019-06-07T06:27:18.633Z,8.70
2019-06-07T06:28:10.083Z,8.40
2019-06-07T06:28:57.862Z,9.00
2019-06-07T06:29:58.091Z,8.10
2019-06-07T06:30:58.359Z,9.30
2019-06-07T06:32:58.976Z,8.60
2019-06-07T06:33:58.998Z,7.80
2019-06-07T06:34:59.234Z,7.00
2019-06-07T06:35:59.456Z,6.80
2019-06-07T06:36:59.713Z,7.20
2019-06-07T06:37:59.919Z,7.80
2019-06-07T06:39:00.144Z,6.80
2019-06-07T06:40:00.370Z,9.40
2019-06-07T06:41:15.229Z,9.80
2019-06-07T06:42:03.750Z,8.80
2019-06-07T06:43:01.055Z,9.80
2019-06-07T06:44:01.321Z,8.50
2019-06-07T06:45:01.560Z,7.20
2019-06-07T06:46:01.892Z,10.80
2019-06-07T06:47:02.013Z,9.10
2019-06-07T06:48:02.244Z,9.60
2019-06-07T06:49:02.473Z,7.80
2019-06-07T06:50:02.714Z,8.40
2019-06-07T06:51:02.933Z,9.40
2019-06-07T06:52:03.163Z,10.80
2019-06-07T06:53:03.392Z,8.40
2019-06-07T06:54:03.622Z,10.70
2019-06-07T06:55:03.853Z,9.40
2019-06-07T06:56:04.078Z,9.50
2019-06-07T06:57:19.130Z,11.60
2019-06-07T06:58:04.533Z,9.50
2019-06-07T07:00:05.024Z,10.20
2019-06-07T07:01:06.857Z,10.70
2019-06-07T07:02:05.485Z,8.30
2019-06-07T07:03:47.458Z,8.10
2019-06-07T07:04:12.926Z,8.70
2019-06-07T07:05:06.153Z,10.30
2019-06-07T07:06:25.414Z,12.20
2019-06-07T07:07:06.616Z,9.80
2019-06-07T07:08:06.883Z,9.80
2019-06-07T07:09:07.077Z,10.60
2019-06-07T07:10:07.305Z,9.60
2019-06-07T07:11:07.534Z,12.20
2019-06-07T07:12:12.993Z,13.00
2019-06-07T07:13:07.993Z,12.00
2019-06-07T07:14:08.267Z,11.60
2019-06-07T07:15:08.459Z,12.80
2019-06-07T07:16:08.698Z,11.10
2019-06-07T07:17:08.919Z,10.10
2019-06-07T07:18:09.184Z,9.20
2019-06-07T07:19:09.375Z,19.00
2019-06-07T07:20:09.602Z,10.00
2019-06-07T07:21:09.829Z,8.70
2019-06-07T07:22:10.058Z,9.40
2019-06-07T07:23:10.290Z,9.20
2019-06-07T07:24:21.265Z,8.40
2019-06-07T07:25:10.750Z,9.20
2019-06-07T07:26:10.973Z,9.10
2019-06-07T07:27:11.202Z,10.20
2019-06-07T07:28:11.434Z,8.60
2019-06-07T07:29:11.661Z,9.00
2019-06-07T07:30:37.373Z,8.80
2019-06-07T07:31:12.122Z,9.30
2019-06-07T07:32:12.387Z,8.90
2019-06-07T07:33:12.584Z,10.10
2019-06-07T07:34:31.015Z,9.20
2019-06-07T07:35:13.047Z,12.60
2019-06-07T07:36:35.211Z,9.40
2019-06-07T07:37:13.509Z,9.50
2019-06-07T07:38:13.740Z,9.00
2019-06-07T07:39:13.972Z,9.20
2019-06-07T07:41:15.817Z,7.10
2019-06-07T07:42:21.219Z,7.70
2019-06-07T07:43:14.897Z,8.70
2019-06-07T07:44:15.127Z,9.70
2019-06-07T07:45:15.362Z,7.80
2019-06-07T07:46:30.642Z,10.20
2019-06-07T07:47:15.820Z,11.40
2019-06-07T07:48:18.578Z,9.30
2019-06-07T07:49:16.284Z,12.00
2019-06-07T07:50:16.515Z,9.90
2019-06-07T07:51:16.747Z,11.10
2019-06-07T07:52:16.979Z,9.60
2019-06-07T07:53:17.218Z,9.30
2019-06-07T07:54:17.448Z,8.40
2019-06-07T07:55:17.730Z,5.70
2019-06-07T07:56:17.920Z,7.20
2019-06-07T07:57:18.138Z,7.60
2019-06-07T07:58:18.372Z,6.00
2019-06-07T07:59:18.595Z,6.30
2019-06-07T08:00:49.656Z,7.90
2019-06-07T08:01:19.060Z,6.30
2019-06-07T08:02:19.291Z,7.60
2019-06-07T08:03:20.270Z,5.00
2019-06-07T08:04:39.537Z,4.70
2019-06-07T08:05:33.785Z,5.30
2019-06-07T08:06:20.203Z,5.50
2019-06-07T08:07:20.430Z,5.50
2019-06-07T08:08:20.667Z,6.50
2019-06-07T08:09:20.896Z,5.70
2019-06-07T08:10:21.320Z,6.70
2019-06-07T08:11:21.356Z,6.10
2019-06-07T08:12:21.589Z,5.60
2019-06-07T08:13:26.570Z,5.50
2019-06-07T08:14:22.053Z,5.10
2019-06-07T08:15:22.285Z,5.70
2019-06-07T08:16:22.520Z,6.00
2019-06-07T08:17:22.749Z,7.20
2019-06-07T08:18:22.984Z,6.20
2019-06-07T08:19:23.216Z,5.30
2019-06-07T08:20:23.448Z,6.60
2019-06-07T08:21:26.686Z,5.20
2019-06-07T08:22:23.912Z,9.30
2019-06-07T08:23:24.146Z,6.40
2019-06-07T08:24:24.378Z,6.50
2019-06-07T08:25:24.613Z,4.80
2019-06-07T08:26:24.843Z,6.50
2019-06-07T08:27:26.650Z,4.80
2019-06-07T08:28:25.310Z,5.00
2019-06-07T08:29:25.544Z,4.60
2019-06-07T08:30:48.096Z,4.50
2019-06-07T08:31:26.008Z,4.60
2019-06-07T08:32:26.240Z,5.00
2019-06-07T08:33:27.085Z,5.60
2019-06-07T08:34:26.754Z,4.40
2019-06-07T08:36:41.335Z,6.40
2019-06-07T08:38:13.421Z,4.60
2019-06-07T08:38:44.966Z,5.40
2019-06-07T08:39:27.862Z,5.30
2019-06-07T08:40:28.149Z,5.00
2019-06-07T08:41:28.330Z,5.10
2019-06-07T08:42:36.896Z,4.70
2019-06-07T08:43:28.798Z,4.90
2019-06-07T08:44:29.027Z,4.80
2019-06-07T08:45:29.286Z,4.20
2019-06-07T08:46:29.520Z,4.10
2019-06-07T08:47:29.768Z,3.80
2019-06-07T08:48:30.458Z,4.70
2019-06-07T08:49:30.239Z,4.40
2019-06-07T08:50:30.476Z,5.40
2019-06-07T08:51:30.707Z,4.40
2019-06-07T08:52:30.939Z,5.00
2019-06-07T08:53:31.172Z,5.60
2019-06-07T08:54:31.403Z,5.20
2019-06-07T08:55:31.638Z,4.40
2019-06-07T08:56:31.874Z,4.50
2019-06-07T08:57:32.101Z,4.10
2019-06-07T08:58:32.331Z,4.20
2019-06-07T08:59:32.565Z,4.10
2019-06-07T09:00:48.231Z,4.70
2019-06-07T09:01:33.031Z,4.40
2019-06-07T09:02:33.267Z,4.80
2019-06-07T09:03:33.497Z,5.20
2019-06-07T09:04:33.735Z,4.30
2019-06-07T09:05:33.977Z,4.10
2019-06-07T09:07:02.509Z,4.70
2019-06-07T09:07:34.425Z,4.60
2019-06-07T09:08:34.658Z,4.20
2019-06-07T09:09:34.938Z,4.60
2019-06-07T09:10:35.142Z,4.30
2019-06-07T09:11:35.368Z,4.60
2019-06-07T09:12:35.586Z,7.30
2019-06-07T09:13:35.819Z,4.80
2019-06-07T09:14:56.437Z,4.50
2019-06-07T09:15:36.285Z,4.20
2019-06-07T09:16:36.516Z,4.70
2019-06-07T09:17:36.749Z,4.40
2019-06-07T09:18:43.993Z,4.20
2019-06-07T09:19:37.213Z,4.70
2019-06-07T09:20:38.759Z,5.00
2019-06-07T09:21:37.678Z,4.80
2019-06-07T09:22:37.910Z,4.80
2019-06-07T09:23:38.147Z,5.20
2019-06-07T09:24:38.373Z,4.60
2019-06-07T09:25:55.816Z,4.50
2019-06-07T09:26:38.837Z,4.40
2019-06-07T09:27:39.068Z,4.60
2019-06-07T09:28:39.302Z,4.80
2019-06-07T09:29:39.533Z,5.10
2019-06-07T09:30:39.766Z,4.90
2019-06-07T09:31:51.925Z,5.30
2019-06-07T09:32:40.226Z,5.40
2019-06-07T09:33:40.555Z,4.90
2019-06-07T09:34:40.744Z,5.00
2019-06-07T09:35:40.927Z,5.30
2019-06-07T09:36:41.156Z,4.90
2019-06-07T09:38:41.619Z,4.60
2019-06-07T09:39:41.851Z,4.70
2019-06-07T09:40:42.079Z,5.00
2019-06-07T09:41:49.659Z,5.10
2019-06-07T09:42:42.544Z,6.30
2019-06-07T09:44:43.009Z,4.50
2019-06-07T09:45:43.276Z,5.80
2019-06-07T09:46:43.519Z,5.40
2019-06-07T09:47:43.767Z,4.90
2019-06-07T09:49:44.187Z,5.40
2019-06-07T09:50:44.430Z,6.10
2019-06-07T09:51:44.652Z,4.90
2019-06-07T09:52:57.686Z,5.80
2019-06-07T09:53:45.116Z,4.80
2019-06-07T09:55:45.577Z,5.50
2019-06-07T09:56:46.412Z,5.00
2019-06-07T09:57:46.040Z,5.60
2019-06-07T09:58:52.688Z,5.50
2019-06-07T09:59:46.848Z,6.20
2019-06-07T10:00:46.741Z,5.70
2019-06-07T10:01:46.971Z,7.80
2019-06-07T10:02:47.215Z,5.20
2019-06-07T10:03:47.432Z,6.10
2019-06-07T10:04:47.665Z,5.30
2019-06-07T10:05:47.895Z,5.80
2019-06-07T10:06:48.140Z,4.80
2019-06-07T10:08:00.471Z,4.70
2019-06-07T10:10:49.063Z,5.20
2019-06-07T10:11:49.293Z,5.20
2019-06-07T10:12:49.522Z,8.20
2019-06-07T10:13:49.754Z,4.50
2019-06-07T10:14:49.985Z,4.80
2019-06-07T10:15:53.465Z,4.60
2019-06-07T10:16:50.453Z,5.40
2019-06-07T10:17:50.683Z,4.90
2019-06-07T10:18:50.913Z,4.90
2019-06-07T10:19:51.155Z,5.30
2019-06-07T10:20:51.384Z,5.30
2019-06-07T10:21:51.617Z,5.70
2019-06-07T10:22:51.848Z,6.80
2019-06-07T10:23:52.085Z,5.90
2019-06-07T10:24:52.320Z,5.50
2019-06-07T10:25:52.550Z,5.20
2019-06-07T10:26:52.776Z,5.00
2019-06-07T10:27:53.010Z,5.20
2019-06-07T10:28:53.631Z,4.90
2019-06-07T10:29:53.470Z,4.40
2019-06-07T10:30:53.707Z,4.90
2019-06-07T10:31:53.936Z,4.10
2019-06-07T10:32:54.165Z,4.90
2019-06-07T10:33:54.423Z,3.90
2019-06-07T10:34:54.638Z,4.80
2019-06-07T10:35:56.141Z,3.40
2019-06-07T10:36:55.042Z,3.90
2019-06-07T10:37:58.101Z,3.40
2019-06-07T10:38:55.498Z,4.70
2019-06-07T10:39:55.729Z,3.50
2019-06-07T10:40:55.957Z,3.40
2019-06-07T10:41:56.190Z,4.10
2019-06-07T10:42:56.421Z,4.10
2019-06-07T10:43:56.656Z,3.60
2019-06-07T10:44:56.886Z,3.50
2019-06-07T10:45:57.118Z,5.10
2019-06-07T10:46:59.247Z,3.90
2019-06-07T10:47:57.573Z,4.70
2019-06-07T10:48:57.816Z,4.40
2019-06-07T10:49:58.040Z,4.00
2019-06-07T10:50:58.271Z,4.90
2019-06-07T10:51:58.501Z,4.10
2019-06-07T10:52:58.732Z,4.80
2019-06-07T10:53:58.964Z,4.10
2019-06-07T10:54:59.193Z,4.20
2019-06-07T10:55:59.424Z,3.70
2019-06-07T10:56:59.657Z,4.40
2019-06-07T10:57:59.890Z,4.80
2019-06-07T10:59:00.118Z,3.80
2019-06-07T11:00:00.353Z,6.00
2019-06-07T11:01:00.583Z,4.10
2019-06-07T11:02:00.816Z,4.20
2019-06-07T11:03:01.050Z,3.90
2019-06-07T11:04:01.282Z,4.90
2019-06-07T11:05:01.516Z,5.20
2019-06-07T11:06:01.747Z,4.50
2019-06-07T11:07:02.011Z,3.60
2019-06-07T11:08:02.216Z,4.10
2019-06-07T11:09:03.717Z,4.10
2019-06-07T11:10:07.438Z,4.50
2019-06-07T11:11:03.844Z,5.20
2019-06-07T11:12:04.301Z,4.70
2019-06-07T11:13:04.068Z,5.40
2019-06-07T11:14:04.363Z,4.90
2019-06-07T11:15:04.586Z,4.00
2019-06-07T11:16:04.721Z,4.10
2019-06-07T11:17:05.140Z,4.40
2019-06-07T11:18:06.104Z,4.30
2019-06-07T11:19:05.972Z,3.60
2019-06-07T11:20:06.069Z,3.80
2019-06-07T11:21:06.085Z,4.70
2019-06-07T11:22:06.079Z,4.60
2019-06-07T11:23:06.656Z,6.20
2019-06-07T11:24:06.178Z,5.40
2019-06-07T11:25:08.662Z,8.70
2019-06-07T11:26:06.403Z,4.80
2019-06-07T11:27:07.312Z,4.70
2019-06-07T11:28:08.246Z,4.30
2019-06-07T11:29:08.823Z,4.30
2019-06-07T11:30:08.397Z,4.50
2019-06-07T11:31:08.414Z,4.50
2019-06-07T11:32:08.414Z,4.30
2019-06-07T11:33:08.435Z,6.30
2019-06-07T11:34:08.281Z,4.90
2019-06-07T11:35:08.598Z,5.10
2019-06-07T11:36:08.728Z,4.90
2019-06-07T11:37:09.460Z,5.20
2019-06-07T11:38:10.474Z,6.00
2019-06-07T11:39:10.945Z,5.10
2019-06-07T11:40:27.779Z,5.30
2019-06-07T11:41:09.878Z,5.00
2019-06-07T11:42:10.111Z,4.50
2019-06-07T11:43:10.749Z,4.90
2019-06-07T11:44:11.027Z,7.10
2019-06-07T11:45:12.739Z,4.40
2019-06-07T11:46:11.071Z,5.10
2019-06-07T11:47:12.454Z,4.30
2019-06-07T11:48:11.504Z,4.60
2019-06-07T11:49:13.073Z,4.80
2019-06-07T11:50:11.965Z,4.70
2019-06-07T11:51:12.675Z,4.40
2019-06-07T11:52:13.886Z,4.30
2019-06-07T11:53:12.731Z,4.20
2019-06-07T11:54:13.985Z,4.30
2019-06-07T11:55:13.494Z,4.50
2019-06-07T11:56:13.974Z,4.10
2019-06-07T11:57:13.578Z,4.60
2019-06-07T11:58:17.285Z,3.90
2019-06-07T11:59:15.231Z,4.50
2019-06-07T12:00:16.075Z,4.60
2019-06-07T12:01:16.603Z,4.10
2019-06-07T12:02:15.469Z,4.10
2019-06-07T12:03:15.911Z,4.30
2019-06-07T12:04:31.021Z,4.90
2019-06-07T12:05:18.382Z,5.10
2019-06-07T12:06:16.401Z,4.40
2019-06-07T12:07:17.174Z,3.70
2019-06-07T12:08:16.181Z,4.50
2019-06-07T12:09:16.814Z,4.40
2019-06-07T12:10:20.571Z,5.50
2019-06-07T12:11:16.828Z,4.60
2019-06-07T12:12:17.060Z,4.30
2019-06-07T12:13:17.730Z,4.90
2019-06-07T12:14:19.217Z,4.60
2019-06-07T12:15:19.170Z,4.30
2019-06-07T12:16:19.283Z,3.90
2019-06-07T12:17:19.517Z,4.30
2019-06-07T12:18:19.667Z,4.60
2019-06-07T12:19:19.789Z,5.50
2019-06-07T12:20:20.962Z,4.20
2019-06-07T12:21:19.917Z,4.40
2019-06-07T12:22:20.048Z,4.10
2019-06-07T12:23:20.146Z,4.10
2019-06-07T12:24:21.154Z,5.60
2019-06-07T12:25:24.833Z,5.20
2019-06-07T12:26:20.772Z,4.20
2019-06-07T12:27:20.829Z,4.30
2019-06-07T12:28:21.069Z,4.10
2019-06-07T12:29:21.180Z,4.30
2019-06-07T12:30:27.321Z,4.80
2019-06-07T12:31:21.473Z,4.30
2019-06-07T12:32:21.724Z,4.30
2019-06-07T12:33:21.945Z,5.20
2019-06-07T12:34:22.176Z,4.30
2019-06-07T12:35:22.409Z,4.40
2019-06-07T12:36:22.638Z,4.30
2019-06-07T12:37:39.177Z,4.30
2019-06-07T12:38:23.212Z,4.70
2019-06-07T12:39:23.335Z,4.10
2019-06-07T12:40:30.226Z,4.10
2019-06-07T12:41:23.801Z,5.60
2019-06-07T12:42:24.035Z,3.80
2019-06-07T12:43:24.275Z,5.50
2019-06-07T12:44:24.503Z,4.40
2019-06-07T12:45:43.851Z,4.30
2019-06-07T12:46:28.514Z,4.10
2019-06-07T12:47:25.198Z,5.00
2019-06-07T12:48:26.175Z,4.30
2019-06-07T12:49:25.661Z,5.50
2019-06-07T12:50:41.728Z,4.00
2019-06-07T12:51:26.126Z,4.10
2019-06-07T12:52:26.361Z,4.00
2019-06-07T12:53:28.288Z,4.00
2019-06-07T12:54:26.825Z,4.70
2019-06-07T12:55:27.055Z,4.10
2019-06-07T12:56:27.287Z,4.30
2019-06-07T12:57:27.521Z,5.40
2019-06-07T12:58:34.727Z,4.30
2019-06-07T12:59:27.999Z,3.90
2019-06-07T13:00:28.223Z,4.50
2019-06-07T13:01:28.454Z,3.90
2019-06-07T13:02:28.691Z,4.90
2019-06-07T13:03:28.924Z,3.80
2019-06-07T13:04:29.158Z,4.10
2019-06-07T13:05:29.392Z,3.30
2019-06-07T13:06:29.625Z,4.10
2019-06-07T13:07:29.855Z,3.90
2019-06-07T13:08:30.088Z,3.70
2019-06-07T13:09:30.322Z,3.70
2019-06-07T13:10:30.566Z,3.40
2019-06-07T13:11:31.809Z,3.60
2019-06-07T13:12:31.022Z,3.70
2019-06-07T13:13:31.251Z,5.70
2019-06-07T13:14:31.493Z,3.60
2019-06-07T13:15:31.719Z,3.70
2019-06-07T13:16:31.955Z,4.20
2019-06-07T13:17:32.187Z,3.60
2019-06-07T13:18:32.419Z,4.10
2019-06-07T13:19:32.653Z,5.70
2019-06-07T13:20:32.887Z,4.30
2019-06-07T13:21:33.121Z,4.20
2019-06-07T13:22:33.356Z,6.80
2019-06-07T13:23:33.587Z,4.90